createdAt,value
2022-08-26T00:02:20.757Z,29.64
2022-08-26T00:05:13.218Z,29.81
2022-08-26T00:08:03.185Z,29.99
2022-08-26T00:10:55.253Z,30.12
2022-08-26T00:13:47.992Z,30.23
2022-08-26T00:16:47.886Z,30.30
2022-08-26T00:19:39.548Z,30.39
2022-08-26T00:22:30.332Z,30.36
2022-08-26T00:25:20.226Z,30.49
2022-08-26T00:28:11.027Z,30.59
2022-08-26T00:31:00.974Z,30.64
2022-08-26T00:33:54.030Z,30.74
2022-08-26T00:36:46.293Z,30.85
2022-08-26T00:39:36.859Z,30.85
2022-08-26T00:42:26.579Z,30.94
2022-08-26T00:45:17.277Z,31.03
2022-08-26T00:48:08.411Z,31.10
2022-08-26T00:51:11.133Z,31.10
2022-08-26T00:54:10.788Z,31.18
2022-08-26T00:57:16.381Z,31.21
2022-08-26T01:00:12.854Z,31.26
2022-08-26T01:03:05.239Z,31.23
2022-08-26T01:06:01.222Z,31.28
2022-08-26T01:08:53.570Z,31.38
2022-08-26T01:11:44.134Z,31.42
2022-08-26T01:14:37.032Z,31.46
2022-08-26T01:17:27.078Z,31.56
2022-08-26T01:20:32.835Z,31.60
2022-08-26T01:23:22.949Z,31.69
2022-08-26T01:26:26.712Z,31.77
2022-08-26T01:29:20.202Z,31.81
2022-08-26T01:32:12.340Z,31.90
2022-08-26T01:35:02.152Z,31.99
2022-08-26T01:37:53.692Z,32.07
2022-08-26T01:40:47.311Z,32.10
2022-08-26T01:43:40.042Z,32.17
2022-08-26T01:46:30.466Z,32.17
2022-08-26T01:49:21.239Z,32.16
2022-08-26T01:52:14.616Z,32.22
2022-08-26T01:55:07.560Z,32.29
2022-08-26T01:58:00.561Z,32.32
2022-08-26T02:00:51.479Z,32.42
2022-08-26T02:04:06.290Z,32.39
2022-08-26T02:06:57.573Z,32.46
2022-08-26T02:09:48.563Z,32.45
2022-08-26T02:12:38.493Z,32.49
2022-08-26T02:15:28.716Z,32.51
2022-08-26T02:18:18.675Z,32.52
2022-08-26T02:21:09.899Z,32.62
2022-08-26T02:24:10.841Z,32.72
2022-08-26T02:27:02.580Z,32.87
2022-08-26T02:30:02.981Z,32.97
2022-08-26T02:32:53.496Z,32.98
2022-08-26T02:35:42.548Z,32.97
2022-08-26T02:38:32.910Z,33.01
2022-08-26T02:41:23.113Z,33.01
2022-08-26T02:44:13.170Z,33.03
2022-08-26T02:47:02.934Z,33.00
2022-08-26T02:49:53.681Z,33.04
2022-08-26T02:52:49.234Z,33.09
2022-08-26T02:55:40.815Z,33.11
2022-08-26T02:58:31.486Z,33.15
2022-08-26T03:01:26.385Z,33.22
2022-08-26T03:04:16.217Z,33.31
2022-08-26T03:07:07.008Z,33.31
2022-08-26T03:09:56.885Z,33.33
2022-08-26T03:12:48.169Z,33.40
2022-08-26T03:15:37.717Z,33.53
2022-08-26T03:18:27.818Z,33.64
2022-08-26T03:21:19.549Z,33.54
2022-08-26T03:24:12.627Z,33.60
2022-08-26T03:27:05.797Z,33.70
2022-08-26T03:30:15.192Z,33.70
2022-08-26T03:33:06.480Z,33.67
2022-08-26T03:35:57.105Z,33.70
2022-08-26T03:38:46.670Z,33.59
2022-08-26T03:41:38.048Z,33.47
2022-08-26T03:44:30.854Z,33.67
2022-08-26T03:47:21.601Z,33.57
2022-08-26T03:50:15.456Z,33.82
2022-08-26T03:53:07.478Z,33.90
2022-08-26T03:56:02.639Z,33.85
2022-08-26T03:58:52.344Z,33.97
2022-08-26T04:01:43.649Z,34.03
2022-08-26T04:04:33.630Z,34.09
2022-08-26T04:07:23.435Z,34.07
2022-08-26T04:10:20.338Z,34.03
2022-08-26T04:13:10.328Z,33.97
2022-08-26T04:15:59.857Z,34.00
2022-08-26T04:18:49.040Z,33.94
2022-08-26T04:21:39.906Z,33.77
2022-08-26T04:24:30.923Z,33.64
2022-08-26T04:27:19.931Z,33.60
2022-08-26T04:30:10.365Z,33.55
2022-08-26T04:33:00.299Z,33.48
2022-08-26T04:35:51.400Z,33.62
2022-08-26T04:38:42.880Z,33.67
2022-08-26T04:41:34.606Z,33.60
2022-08-26T04:44:27.088Z,33.53
2022-08-26T04:47:16.980Z,33.47
2022-08-26T04:50:10.984Z,33.45
2022-08-26T04:53:00.910Z,33.39
2022-08-26T04:55:52.417Z,33.33
2022-08-26T04:58:49.836Z,33.35
2022-08-26T05:01:39.783Z,33.36
2022-08-26T05:04:29.848Z,33.30
2022-08-26T05:07:22.204Z,33.29
2022-08-26T05:10:12.807Z,33.38
2022-08-26T05:13:05.142Z,33.42
2022-08-26T05:16:05.643Z,33.55
2022-08-26T05:18:56.154Z,33.51
2022-08-26T05:21:46.010Z,33.51
2022-08-26T05:24:37.659Z,33.77
2022-08-26T05:27:30.898Z,33.70
2022-08-26T05:30:25.830Z,33.61
2022-08-26T05:33:16.187Z,33.53
2022-08-26T05:36:16.884Z,33.46
2022-08-26T05:39:10.515Z,33.44
2022-08-26T05:42:00.949Z,33.40
2022-08-26T05:44:56.271Z,33.36
2022-08-26T05:47:46.261Z,33.34
2022-08-26T05:50:42.247Z,33.37
2022-08-26T05:53:33.397Z,33.40
2022-08-26T05:56:27.562Z,33.40
2022-08-26T05:59:17.226Z,33.42
2022-08-26T06:02:16.085Z,33.39
2022-08-26T06:05:07.588Z,33.44
2022-08-26T06:08:15.383Z,33.36
2022-08-26T06:11:18.373Z,33.35
2022-08-26T06:14:09.265Z,33.39
2022-08-26T06:16:59.156Z,33.51
2022-08-26T06:19:49.394Z,33.60
2022-08-26T06:22:57.321Z,33.55
2022-08-26T06:25:51.855Z,33.62
2022-08-26T06:28:43.618Z,33.70
2022-08-26T06:31:37.253Z,33.77
2022-08-26T06:34:30.913Z,33.78
2022-08-26T06:37:23.836Z,33.71
2022-08-26T06:40:14.172Z,33.84
2022-08-26T06:43:04.162Z,33.94
2022-08-26T06:46:01.235Z,34.05
2022-08-26T06:48:56.268Z,34.06
2022-08-26T06:51:46.907Z,34.03
2022-08-26T06:54:44.420Z,33.99
2022-08-26T06:57:35.703Z,33.89
2022-08-26T07:00:29.559Z,33.90
2022-08-26T07:03:22.337Z,33.90
2022-08-26T07:06:12.361Z,34.14
2022-08-26T07:09:09.821Z,34.38
2022-08-26T07:12:02.644Z,34.59
2022-08-26T07:14:53.076Z,34.79
2022-08-26T07:17:43.717Z,34.88
2022-08-26T07:20:35.490Z,34.89
2022-08-26T07:23:25.476Z,35.03
2022-08-26T07:26:21.747Z,35.14
2022-08-26T07:29:16.172Z,35.24
2022-08-26T07:32:07.769Z,35.30
2022-08-26T07:34:57.311Z,35.35
2022-08-26T07:37:46.593Z,35.39
2022-08-26T07:40:36.670Z,35.46
2022-08-26T07:43:26.379Z,35.43
2022-08-26T07:46:29.926Z,35.38
2022-08-26T07:49:20.877Z,35.30
2022-08-26T07:52:11.138Z,35.21
2022-08-26T07:55:03.642Z,35.10
2022-08-26T07:57:53.205Z,34.97
2022-08-26T08:00:43.166Z,34.86
2022-08-26T08:03:34.388Z,34.74
2022-08-26T08:06:27.294Z,34.70
2022-08-26T08:09:22.412Z,34.68
2022-08-26T08:12:15.423Z,34.61
2022-08-26T08:15:06.064Z,34.54
2022-08-26T08:17:58.876Z,34.47
2022-08-26T08:20:54.653Z,34.36
2022-08-26T08:23:48.672Z,34.28
2022-08-26T08:26:38.533Z,34.23
2022-08-26T08:29:30.978Z,34.22
2022-08-26T08:32:20.539Z,34.15
2022-08-26T08:35:14.593Z,34.10
2022-08-26T08:38:05.790Z,34.01
2022-08-26T08:40:57.162Z,33.96
2022-08-26T08:43:47.778Z,33.99
2022-08-26T08:46:39.078Z,33.95
2022-08-26T08:49:29.658Z,33.91
2022-08-26T08:52:33.603Z,33.92
2022-08-26T08:55:23.321Z,33.84
2022-08-26T08:58:22.070Z,33.85
2022-08-26T09:01:35.298Z,33.82
2022-08-26T09:04:28.264Z,33.76
2022-08-26T09:07:42.621Z,33.83
2022-08-26T09:10:43.637Z,33.78
2022-08-26T09:13:34.291Z,33.71
2022-08-26T09:16:36.764Z,33.73
2022-08-26T09:19:35.077Z,33.68
2022-08-26T09:22:38.494Z,33.63
2022-08-26T09:25:27.974Z,33.57
2022-08-26T09:28:21.081Z,33.49
2022-08-26T09:31:25.211Z,33.53
2022-08-26T09:34:23.567Z,33.50
2022-08-26T09:37:13.146Z,33.42
2022-08-26T09:40:38.329Z,33.38
2022-08-26T09:43:30.344Z,33.33
2022-08-26T09:46:28.736Z,33.31
2022-08-26T09:49:38.771Z,33.28
2022-08-26T09:52:29.235Z,33.21
2022-08-26T09:55:25.692Z,33.18
2022-08-26T09:58:34.342Z,33.09
2022-08-26T10:01:45.294Z,33.01
2022-08-26T10:04:35.787Z,32.87
2022-08-26T10:07:52.808Z,32.79
2022-08-26T10:10:44.080Z,32.72
2022-08-26T10:13:43.156Z,32.63
2022-08-26T10:16:49.148Z,32.66
2022-08-26T10:19:56.803Z,32.55
2022-08-26T10:22:52.039Z,32.49
2022-08-26T10:25:59.234Z,32.47
2022-08-26T10:28:50.242Z,32.39
2022-08-26T10:31:43.422Z,32.35
2022-08-26T10:34:36.281Z,32.33
2022-08-26T10:37:28.547Z,32.29
2022-08-26T10:40:49.085Z,32.24
2022-08-26T10:43:47.681Z,32.17
2022-08-26T10:46:44.762Z,32.13
2022-08-26T10:49:34.128Z,32.08
2022-08-26T10:52:38.570Z,32.11
2022-08-26T10:56:03.908Z,32.04
2022-08-26T10:59:12.494Z,32.01
2022-08-26T11:02:30.857Z,31.94
2022-08-26T11:05:25.021Z,31.91
2022-08-26T11:08:25.364Z,31.85
2022-08-26T11:11:41.539Z,31.86
2022-08-26T11:14:53.748Z,31.78
2022-08-26T11:17:49.082Z,31.74
2022-08-26T11:20:44.969Z,31.72
2022-08-26T11:23:40.398Z,31.72
2022-08-26T11:26:55.611Z,31.71
2022-08-26T11:30:04.066Z,31.74
2022-08-26T11:32:59.837Z,31.65
2022-08-26T11:35:50.694Z,31.58
2022-08-26T11:38:45.256Z,31.58
2022-08-26T11:41:35.694Z,31.57
2022-08-26T11:44:42.002Z,31.59
2022-08-26T11:47:39.599Z,31.58
2022-08-26T11:50:31.173Z,31.58
2022-08-26T11:53:21.352Z,31.58
2022-08-26T11:56:31.526Z,31.56
2022-08-26T11:59:25.580Z,31.53
2022-08-26T12:02:18.284Z,31.60
2022-08-26T12:05:09.632Z,31.69
2022-08-26T12:08:10.060Z,31.79
2022-08-26T12:11:09.958Z,31.79
2022-08-26T12:14:01.764Z,31.85
2022-08-26T12:16:55.373Z,31.90
2022-08-26T12:19:45.939Z,31.90
2022-08-26T12:22:36.209Z,31.93
2022-08-26T12:25:26.683Z,31.95
2022-08-26T12:28:16.223Z,31.96
2022-08-26T12:31:08.325Z,31.91
2022-08-26T12:34:00.539Z,31.89
2022-08-26T12:36:54.564Z,31.92
2022-08-26T12:39:45.930Z,31.98
2022-08-26T12:42:44.024Z,31.95
2022-08-26T12:45:39.638Z,31.89
2022-08-26T12:48:33.422Z,31.93
2022-08-26T12:51:29.296Z,31.95
2022-08-26T12:54:23.013Z,32.00
2022-08-26T12:57:14.740Z,31.95
2022-08-26T13:00:32.239Z,32.02
2022-08-26T13:03:33.316Z,32.00
2022-08-26T13:06:41.730Z,32.05
2022-08-26T13:09:33.072Z,32.00
2022-08-26T13:12:42.391Z,32.06
2022-08-26T13:15:32.576Z,31.96
2022-08-26T13:18:26.908Z,31.96
2022-08-26T13:21:22.951Z,31.96
2022-08-26T13:24:15.056Z,31.99
2022-08-26T13:27:06.966Z,31.89
2022-08-26T13:29:59.202Z,31.85
2022-08-26T13:32:49.278Z,31.82
2022-08-26T13:35:38.789Z,31.81
2022-08-26T13:38:33.645Z,31.77
2022-08-26T13:41:29.248Z,31.75
2022-08-26T13:44:19.579Z,31.72
2022-08-26T13:47:10.065Z,31.67
2022-08-26T13:50:00.163Z,31.58
2022-08-26T13:52:50.025Z,31.60
2022-08-26T13:55:39.523Z,31.60
2022-08-26T13:58:29.475Z,31.59
2022-08-26T14:01:19.728Z,31.53
2022-08-26T14:04:12.611Z,31.53
2022-08-26T14:07:02.657Z,31.47
2022-08-26T14:09:52.179Z,31.48
2022-08-26T14:12:42.339Z,31.45
2022-08-26T14:15:36.823Z,31.48
2022-08-26T14:18:31.749Z,31.45
2022-08-26T14:21:22.402Z,31.43
2022-08-26T14:24:13.250Z,31.36
2022-08-26T14:27:03.597Z,31.35
2022-08-26T14:29:54.149Z,31.35
2022-08-26T14:32:46.978Z,31.29
2022-08-26T14:35:36.258Z,31.32
2022-08-26T14:38:27.407Z,31.27
2022-08-26T14:41:18.675Z,31.24
2022-08-26T14:44:12.927Z,31.17
2022-08-26T14:47:04.492Z,31.13
2022-08-26T14:49:54.394Z,31.17
2022-08-26T14:53:02.467Z,31.12
2022-08-26T14:55:53.391Z,31.02
2022-08-26T14:58:43.145Z,30.98
2022-08-26T15:01:33.964Z,30.99
2022-08-26T15:04:25.359Z,30.96
2022-08-26T15:07:15.836Z,30.95
2022-08-26T15:10:15.944Z,31.04
2022-08-26T15:13:06.392Z,30.93
2022-08-26T15:15:55.864Z,30.91
2022-08-26T15:18:46.423Z,30.90
2022-08-26T15:21:37.926Z,30.87
2022-08-26T15:24:30.250Z,30.84
2022-08-26T15:27:21.251Z,30.81
2022-08-26T15:30:12.769Z,30.81
2022-08-26T15:33:02.775Z,30.77
2022-08-26T15:35:52.633Z,30.74
2022-08-26T15:38:43.937Z,30.81
2022-08-26T15:41:34.918Z,30.78
2022-08-26T15:44:26.588Z,30.74
2022-08-26T15:47:16.533Z,30.82
2022-08-26T15:50:06.417Z,30.78
2022-08-26T15:52:55.681Z,30.72
2022-08-26T15:55:47.163Z,30.66
2022-08-26T15:58:38.226Z,30.61
2022-08-26T16:01:29.364Z,30.63
2022-08-26T16:04:20.019Z,30.66
2022-08-26T16:07:10.263Z,30.68
2022-08-26T16:09:59.796Z,30.78
2022-08-26T16:12:49.729Z,30.67
2022-08-26T16:15:40.656Z,30.64
2022-08-26T16:18:30.589Z,30.66
2022-08-26T16:21:22.888Z,30.65
2022-08-26T16:24:14.002Z,30.51
2022-08-26T16:27:04.792Z,30.51
2022-08-26T16:29:54.813Z,30.50
2022-08-26T16:32:47.463Z,30.46
2022-08-26T16:35:37.296Z,30.37
2022-08-26T16:38:27.562Z,30.37
2022-08-26T16:41:17.732Z,30.40
2022-08-26T16:44:15.470Z,30.33
2022-08-26T16:47:05.065Z,30.30
2022-08-26T16:49:54.980Z,30.24
2022-08-26T16:52:44.785Z,30.25
2022-08-26T16:55:34.644Z,30.26
2022-08-26T16:58:24.288Z,30.22
2022-08-26T17:01:14.095Z,30.18
2022-08-26T17:04:04.971Z,30.12
2022-08-26T17:06:54.986Z,30.13
2022-08-26T17:09:45.642Z,30.15
2022-08-26T17:12:37.562Z,30.14
2022-08-26T17:15:27.287Z,30.12
2022-08-26T17:18:17.392Z,30.11
2022-08-26T17:21:11.087Z,30.08
2022-08-26T17:24:00.876Z,30.03
2022-08-26T17:26:55.513Z,30.01
2022-08-26T17:29:45.971Z,30.00
2022-08-26T17:32:36.422Z,29.96
2022-08-26T17:35:26.527Z,29.95
2022-08-26T17:38:16.011Z,29.99
2022-08-26T17:41:09.962Z,29.95
2022-08-26T17:43:59.531Z,29.97
2022-08-26T17:46:49.550Z,29.91
2022-08-26T17:49:39.279Z,29.94
2022-08-26T17:52:29.547Z,29.89
2022-08-26T17:55:25.107Z,29.85
2022-08-26T17:58:15.320Z,29.87
2022-08-26T18:01:07.324Z,29.87
2022-08-26T18:04:00.458Z,29.87
2022-08-26T18:06:50.598Z,29.83
2022-08-26T18:09:40.589Z,29.82
2022-08-26T18:12:30.331Z,29.83
2022-08-26T18:15:20.359Z,29.83
2022-08-26T18:18:17.422Z,29.82
2022-08-26T18:21:17.341Z,29.82
2022-08-26T18:24:13.358Z,29.80
2022-08-26T18:27:03.612Z,29.81
2022-08-26T18:29:53.122Z,29.78
2022-08-26T18:32:42.987Z,29.73
2022-08-26T18:35:32.711Z,29.71
2022-08-26T18:38:22.503Z,29.69
2022-08-26T18:41:12.715Z,29.73
2022-08-26T18:44:02.420Z,29.69
2022-08-26T18:46:52.804Z,29.67
2022-08-26T18:49:44.197Z,29.64
2022-08-26T18:52:34.428Z,29.64
2022-08-26T18:55:24.369Z,29.60
2022-08-26T18:58:14.305Z,29.61
2022-08-26T19:01:04.234Z,29.60
2022-08-26T19:03:54.270Z,29.51
2022-08-26T19:06:44.360Z,29.56
2022-08-26T19:09:35.167Z,29.57
2022-08-26T19:12:27.140Z,29.52
2022-08-26T19:15:17.023Z,29.46
2022-08-26T19:18:08.847Z,29.50
2022-08-26T19:20:58.724Z,29.51
2022-08-26T19:23:48.856Z,29.49
2022-08-26T19:26:40.232Z,29.46
2022-08-26T19:29:33.909Z,29.45
2022-08-26T19:32:25.627Z,29.42
2022-08-26T19:35:16.327Z,29.41
2022-08-26T19:38:06.405Z,29.39
2022-08-26T19:40:55.686Z,29.39
2022-08-26T19:43:46.173Z,29.35
2022-08-26T19:49:31.992Z,29.30
2022-08-26T19:52:30.037Z,29.30
2022-08-26T19:55:21.320Z,29.29
2022-08-26T19:58:12.841Z,29.28
2022-08-26T20:01:03.158Z,29.31
2022-08-26T20:03:53.066Z,29.28
2022-08-26T20:06:42.842Z,29.28
2022-08-26T20:09:33.972Z,29.30
2022-08-26T20:12:24.188Z,29.27
2022-08-26T20:15:15.807Z,29.28
2022-08-26T20:18:05.178Z,29.26
2022-08-26T20:21:13.437Z,29.25
2022-08-26T20:24:13.396Z,29.25
2022-08-26T20:27:07.513Z,29.20
2022-08-26T20:29:58.675Z,29.21
2022-08-26T20:32:48.041Z,29.18
2022-08-26T20:35:38.242Z,29.19
2022-08-26T20:38:28.055Z,29.21
2022-08-26T20:41:18.694Z,29.18
2022-08-26T20:44:08.694Z,29.18
2022-08-26T20:47:00.506Z,29.22
2022-08-26T20:49:52.331Z,29.19
2022-08-26T20:52:44.737Z,29.19
2022-08-26T20:55:35.147Z,29.21
2022-08-26T20:58:27.743Z,29.19
2022-08-26T21:01:23.878Z,29.15
2022-08-26T21:04:17.099Z,29.15
2022-08-26T21:07:06.919Z,29.17
2022-08-26T21:09:56.576Z,29.16
2022-08-26T21:12:49.554Z,29.12
2022-08-26T21:15:39.811Z,29.11
2022-08-26T21:18:29.510Z,29.11
2022-08-26T21:21:19.177Z,29.10
2022-08-26T21:24:15.444Z,29.09
2022-08-26T21:27:05.278Z,29.10
2022-08-26T21:29:55.313Z,29.07
2022-08-26T21:32:45.091Z,29.08
2022-08-26T21:35:34.851Z,29.14
2022-08-26T21:38:24.911Z,29.10
2022-08-26T21:41:21.752Z,29.12
2022-08-26T21:44:16.515Z,29.14
2022-08-26T21:47:06.301Z,29.08
2022-08-26T21:49:55.972Z,29.10
2022-08-26T21:52:45.553Z,29.11
2022-08-26T21:55:37.859Z,29.11
2022-08-26T21:58:27.532Z,29.09
2022-08-26T22:01:24.540Z,29.07
2022-08-26T22:04:15.055Z,29.07
2022-08-26T22:07:06.364Z,29.07
2022-08-26T22:09:56.444Z,29.08
2022-08-26T22:12:45.893Z,29.09
2022-08-26T22:15:41.796Z,29.06
2022-08-26T22:18:32.215Z,29.07
2022-08-26T22:21:25.710Z,29.02
2022-08-26T22:24:15.995Z,29.10
2022-08-26T22:27:06.348Z,29.07
2022-08-26T22:29:56.228Z,29.08
2022-08-26T22:32:47.024Z,29.06
2022-08-26T22:35:42.230Z,29.06
2022-08-26T22:38:31.621Z,29.02
2022-08-26T22:41:21.399Z,28.98
2022-08-26T22:44:11.964Z,29.02
2022-08-26T22:47:01.697Z,28.99
2022-08-26T22:49:52.613Z,28.97
2022-08-26T22:52:42.732Z,28.98
2022-08-26T22:55:32.940Z,28.95
2022-08-26T22:58:23.146Z,28.95
2022-08-26T23:01:20.869Z,28.94
2022-08-26T23:04:12.586Z,28.92
2022-08-26T23:07:02.563Z,28.94
2022-08-26T23:09:52.771Z,28.95
2022-08-26T23:12:43.272Z,28.91
2022-08-26T23:15:33.604Z,28.92
2022-08-26T23:18:23.458Z,28.97
2022-08-26T23:21:14.012Z,28.92
2022-08-26T23:24:03.822Z,28.90
2022-08-26T23:26:53.524Z,28.95
2022-08-26T23:29:43.878Z,28.91
2022-08-26T23:32:34.233Z,28.92
2022-08-26T23:35:24.282Z,28.95
2022-08-26T23:38:15.393Z,28.92
2022-08-26T23:41:07.594Z,28.93
2022-08-26T23:44:01.604Z,29.00
2022-08-26T23:46:53.003Z,29.07
2022-08-26T23:49:43.963Z,29.13
2022-08-26T23:52:52.970Z,29.14
2022-08-26T23:55:45.953Z,29.17
2022-08-26T23:58:36.379Z,29.23
